createdAt,value
2022-11-24T00:01:40.070Z,2.08
2022-11-24T00:04:08.517Z,2.33
2022-11-24T00:06:37.028Z,2.05
2022-11-24T00:09:06.114Z,2.30
2022-11-24T00:11:36.690Z,2.70
2022-11-24T00:14:06.479Z,1.90
2022-11-24T00:16:35.643Z,2.42
2022-11-24T00:19:05.473Z,2.45
2022-11-24T00:21:33.513Z,2.88
2022-11-24T00:24:01.246Z,2.50
2022-11-24T00:26:30.546Z,3.00
2022-11-24T00:29:01.744Z,3.00
2022-11-24T00:31:31.003Z,2.40
2022-11-24T00:34:00.465Z,2.28
2022-11-24T00:36:30.213Z,3.10
2022-11-24T00:38:59.610Z,2.83
2022-11-24T00:41:28.609Z,3.17
2022-11-24T00:43:57.042Z,2.72
2022-11-24T00:46:27.360Z,3.00
2022-11-24T00:48:55.775Z,3.10
2022-11-24T00:51:26.391Z,3.00
2022-11-24T00:53:54.201Z,3.35
2022-11-24T00:56:22.025Z,3.25
2022-11-24T00:58:50.527Z,2.83
2022-11-24T01:01:20.593Z,2.53
2022-11-24T01:03:50.311Z,2.95
2022-11-24T01:06:20.763Z,2.42
2022-11-24T01:08:49.274Z,2.10
2022-11-24T01:11:18.704Z,3.13
2022-11-24T01:13:48.525Z,3.75
2022-11-24T01:16:19.198Z,2.70
2022-11-24T01:18:47.444Z,2.83
2022-11-24T01:21:16.883Z,3.20
2022-11-24T01:23:44.634Z,2.70
2022-11-24T01:26:14.869Z,3.03
2022-11-24T01:28:47.008Z,2.50
2022-11-24T01:31:16.402Z,3.90
2022-11-24T01:33:44.397Z,3.42
2022-11-24T01:36:12.615Z,3.05
2022-11-24T01:38:41.763Z,3.65
2022-11-24T01:41:13.114Z,3.38
2022-11-24T01:43:41.087Z,3.20
2022-11-24T01:46:18.202Z,3.10
2022-11-24T01:48:49.834Z,3.83
2022-11-24T01:51:21.496Z,3.35
2022-11-24T01:53:54.266Z,4.07
2022-11-24T01:56:22.237Z,3.05
2022-11-24T01:58:53.207Z,3.38
2022-11-24T02:01:21.138Z,2.58
2022-11-24T02:03:50.184Z,3.53
2022-11-24T02:06:22.118Z,3.88
2022-11-24T02:08:56.284Z,2.90
2022-11-24T02:11:25.606Z,3.45
2022-11-24T02:13:55.242Z,3.35
2022-11-24T02:16:23.273Z,3.80
2022-11-24T02:18:51.137Z,4.03
2022-11-24T02:21:19.262Z,4.07
2022-11-24T02:23:56.463Z,3.95
2022-11-24T02:26:42.653Z,3.70
2022-11-24T02:29:11.622Z,4.40
2022-11-24T02:31:40.828Z,4.93
2022-11-24T02:34:08.631Z,3.85
2022-11-24T02:36:36.337Z,4.63
2022-11-24T02:39:04.229Z,4.07
2022-11-24T02:41:32.110Z,3.83
2022-11-24T02:44:03.211Z,4.20
2022-11-24T02:46:31.024Z,2.75
2022-11-24T02:48:58.954Z,4.43
2022-11-24T02:51:26.762Z,3.45
2022-11-24T02:53:54.519Z,3.88
2022-11-24T02:56:22.238Z,3.80
2022-11-24T02:58:49.927Z,3.33
2022-11-24T03:01:19.206Z,4.05
2022-11-24T03:03:47.152Z,3.28
2022-11-24T03:06:14.888Z,2.67
2022-11-24T03:08:42.578Z,3.30
2022-11-24T03:11:10.281Z,2.60
2022-11-24T03:13:37.964Z,3.85
2022-11-24T03:16:09.690Z,3.45
2022-11-24T03:18:38.976Z,2.83
2022-11-24T03:21:07.065Z,3.60
2022-11-24T03:23:34.790Z,2.47
2022-11-24T03:26:09.622Z,2.70
2022-11-24T03:28:37.782Z,3.17
2022-11-24T03:31:06.514Z,3.50
2022-11-24T03:33:34.590Z,2.60
2022-11-24T03:36:04.654Z,2.67
2022-11-24T03:38:32.502Z,2.60
2022-11-24T03:41:00.309Z,3.33
2022-11-24T03:43:28.040Z,3.25
2022-11-24T03:45:55.919Z,2.85
2022-11-24T03:48:23.681Z,2.85
2022-11-24T03:50:56.321Z,2.92
2022-11-24T03:53:27.103Z,2.13
2022-11-24T03:55:55.095Z,2.20
2022-11-24T03:58:23.032Z,2.53
2022-11-24T04:00:52.217Z,2.83
2022-11-24T04:03:20.450Z,2.53
2022-11-24T04:05:48.449Z,2.67
2022-11-24T04:08:16.743Z,2.90
2022-11-24T04:10:45.906Z,2.50
2022-11-24T04:13:14.495Z,2.78
2022-11-24T04:15:43.777Z,2.42
2022-11-24T04:18:13.063Z,3.13
2022-11-24T04:20:41.633Z,2.65
2022-11-24T04:23:09.756Z,2.90
2022-11-24T04:25:38.230Z,2.80
2022-11-24T04:28:07.332Z,2.92
2022-11-24T04:30:36.085Z,2.65
2022-11-24T04:33:03.989Z,2.78
2022-11-24T04:35:31.666Z,2.50
2022-11-24T04:38:03.257Z,2.72
2022-11-24T04:40:31.173Z,3.22
2022-11-24T04:42:58.994Z,2.00
2022-11-24T04:45:28.186Z,3.00
2022-11-24T04:47:55.870Z,3.30
2022-11-24T04:50:23.764Z,2.42
2022-11-24T04:52:52.481Z,2.65
2022-11-24T04:55:20.210Z,2.85
2022-11-24T04:57:47.960Z,2.67
2022-11-24T05:00:16.288Z,2.42
2022-11-24T05:02:45.391Z,2.67
2022-11-24T05:05:13.114Z,2.17
2022-11-24T05:07:40.963Z,2.28
2022-11-24T05:10:26.878Z,2.22
2022-11-24T05:12:55.509Z,2.25
2022-11-24T05:15:23.730Z,2.55
2022-11-24T05:17:53.357Z,2.20
2022-11-24T05:20:21.218Z,3.05
2022-11-24T05:22:49.021Z,2.25
2022-11-24T05:25:17.171Z,3.05
2022-11-24T05:27:45.006Z,2.70
2022-11-24T05:30:13.554Z,2.65
2022-11-24T05:32:41.322Z,2.42
2022-11-24T05:35:11.015Z,1.85
2022-11-24T05:37:38.922Z,2.33
2022-11-24T05:40:07.998Z,2.10
2022-11-24T05:42:46.791Z,2.83
2022-11-24T05:45:18.498Z,2.95
2022-11-24T05:47:47.108Z,2.33
2022-11-24T05:50:19.186Z,2.10
2022-11-24T05:52:47.356Z,2.25
2022-11-24T05:55:16.390Z,2.03
2022-11-24T05:57:44.119Z,2.85
2022-11-24T06:00:12.850Z,2.10
2022-11-24T06:02:41.215Z,2.55
2022-11-24T06:05:09.712Z,2.47
2022-11-24T06:07:39.032Z,2.30
2022-11-24T06:10:07.267Z,2.22
2022-11-24T06:12:35.063Z,2.38
2022-11-24T06:15:02.841Z,2.60
2022-11-24T06:17:30.588Z,2.67
2022-11-24T06:19:58.297Z,2.20
2022-11-24T06:22:26.013Z,1.98
2022-11-24T06:24:55.104Z,2.70
2022-11-24T06:27:23.059Z,2.97
2022-11-24T06:29:50.818Z,3.38
2022-11-24T06:32:18.647Z,3.25
2022-11-24T06:34:46.669Z,2.38
2022-11-24T06:37:14.392Z,2.63
2022-11-24T06:39:42.530Z,2.95
2022-11-24T06:42:11.649Z,3.05
2022-11-24T06:44:39.373Z,3.00
2022-11-24T06:47:07.077Z,2.95
2022-11-24T06:49:34.832Z,2.45
2022-11-24T06:52:02.685Z,3.15
2022-11-24T06:54:30.431Z,2.75
2022-11-24T06:56:58.786Z,3.00
2022-11-24T06:59:28.210Z,3.17
2022-11-24T07:01:56.085Z,2.58
2022-11-24T07:04:23.815Z,3.42
2022-11-24T07:06:51.521Z,2.88
2022-11-24T07:09:19.249Z,2.72
2022-11-24T07:11:46.953Z,2.95
2022-11-24T07:14:14.639Z,3.53
2022-11-24T07:16:43.851Z,2.85
2022-11-24T07:19:11.971Z,3.03
2022-11-24T07:21:39.709Z,2.20
2022-11-24T07:24:08.683Z,2.65
2022-11-24T07:26:37.416Z,3.22
2022-11-24T07:29:06.012Z,2.85
2022-11-24T07:31:33.884Z,2.67
2022-11-24T07:34:03.057Z,2.70
2022-11-24T07:36:30.888Z,3.55
2022-11-24T07:38:58.805Z,3.40
2022-11-24T07:41:26.825Z,3.10
2022-11-24T07:43:54.557Z,3.17
2022-11-24T07:46:22.302Z,3.35
2022-11-24T07:48:50.023Z,3.58
2022-11-24T07:51:19.064Z,3.10
2022-11-24T07:53:47.073Z,3.67
2022-11-24T07:56:14.926Z,3.15
2022-11-24T07:58:42.706Z,3.72
2022-11-24T08:01:12.855Z,3.90
2022-11-24T08:03:40.953Z,2.67
2022-11-24T08:06:24.487Z,3.05
2022-11-24T08:08:55.669Z,2.93
2022-11-24T08:11:24.236Z,3.17
2022-11-24T08:13:52.042Z,3.72
2022-11-24T08:16:21.285Z,3.28
2022-11-24T08:18:51.702Z,3.00
2022-11-24T08:21:19.929Z,3.63
2022-11-24T08:23:47.836Z,3.30
2022-11-24T08:26:19.282Z,3.50
2022-11-24T08:28:48.686Z,2.88
2022-11-24T08:31:19.546Z,3.45
2022-11-24T08:33:47.762Z,3.20
2022-11-24T08:36:17.547Z,3.75
2022-11-24T08:38:46.160Z,2.10
2022-11-24T08:41:15.735Z,2.90
2022-11-24T08:43:44.855Z,3.22
2022-11-24T08:46:17.110Z,3.10
2022-11-24T08:48:45.592Z,2.60
2022-11-24T08:51:15.781Z,3.78
2022-11-24T08:53:44.121Z,3.03
2022-11-24T08:56:13.941Z,3.25
2022-11-24T08:58:41.842Z,2.58
2022-11-24T09:01:12.796Z,2.67
2022-11-24T09:03:48.216Z,2.65
2022-11-24T09:06:18.212Z,3.10
2022-11-24T09:08:45.985Z,3.78
2022-11-24T09:11:15.545Z,3.03
2022-11-24T09:13:43.848Z,3.00
2022-11-24T09:16:14.788Z,2.38
2022-11-24T09:18:42.950Z,2.65
2022-11-24T09:21:12.835Z,3.10
2022-11-24T09:23:41.030Z,2.60
2022-11-24T09:26:10.847Z,3.00
2022-11-24T09:28:38.557Z,3.25
2022-11-24T09:31:08.776Z,3.65
2022-11-24T09:33:38.520Z,2.72
2022-11-24T09:36:07.256Z,2.65
2022-11-24T09:38:35.284Z,3.45
2022-11-24T09:41:33.623Z,2.63
2022-11-24T09:44:08.459Z,2.90
2022-11-24T09:46:43.459Z,3.38
2022-11-24T09:49:17.987Z,8.07
2022-11-24T09:51:52.307Z,3.42
2022-11-24T09:54:25.093Z,3.10
2022-11-24T09:56:53.706Z,2.70
2022-11-24T09:59:23.460Z,3.03
2022-11-24T10:01:55.763Z,3.20
2022-11-24T10:04:35.194Z,2.45
2022-11-24T10:07:14.324Z,3.05
2022-11-24T10:09:54.355Z,3.25
2022-11-24T10:12:35.351Z,3.13
2022-11-24T10:15:37.429Z,3.03
2022-11-24T10:18:34.891Z,2.95
2022-11-24T10:21:15.807Z,2.63
2022-11-24T10:23:57.221Z,2.75
2022-11-24T10:26:35.195Z,3.00
2022-11-24T10:29:09.824Z,2.85
2022-11-24T10:31:41.726Z,3.33
2022-11-24T10:34:15.916Z,4.30
2022-11-24T10:36:51.652Z,3.58
2022-11-24T10:39:25.509Z,3.08
2022-11-24T10:42:00.270Z,3.58
2022-11-24T10:44:27.967Z,3.10
2022-11-24T10:46:55.896Z,2.92
2022-11-24T10:49:28.018Z,3.20
2022-11-24T10:52:07.635Z,4.05
2022-11-24T10:54:36.812Z,3.75
2022-11-24T10:57:04.539Z,3.58
2022-11-24T10:59:38.378Z,3.47
2022-11-24T11:02:28.979Z,3.67
2022-11-24T11:04:56.821Z,4.03
2022-11-24T11:07:27.348Z,3.28
2022-11-24T11:10:19.479Z,3.22
2022-11-24T11:12:47.424Z,3.03
2022-11-24T11:15:24.440Z,3.13
2022-11-24T11:17:57.242Z,2.83
2022-11-24T11:20:29.972Z,3.50
2022-11-24T11:23:01.389Z,3.97
2022-11-24T11:25:33.476Z,4.28
2022-11-24T11:28:22.784Z,3.60
2022-11-24T11:34:07.217Z,3.10
2022-11-24T11:36:41.997Z,3.20
2022-11-24T11:39:21.272Z,3.47
2022-11-24T11:41:52.822Z,3.20
2022-11-24T11:44:31.121Z,3.35
2022-11-24T11:47:00.982Z,4.32
2022-11-24T11:49:28.774Z,4.47
2022-11-24T11:52:30.371Z,3.80
2022-11-24T11:55:29.366Z,4.75
2022-11-24T11:58:08.293Z,4.35
2022-11-24T12:00:39.836Z,4.82
2022-11-24T12:03:39.773Z,4.95
2022-11-24T12:06:21.182Z,4.97
2022-11-24T12:12:01.767Z,5.20
2022-11-24T12:14:40.247Z,4.60
2022-11-24T12:17:20.594Z,5.03
2022-11-24T12:20:07.388Z,4.40
2022-11-24T12:22:43.615Z,5.00
2022-11-24T12:25:26.452Z,4.80
2022-11-24T12:28:06.959Z,4.72
2022-11-24T12:30:42.939Z,5.15
2022-11-24T12:33:30.448Z,5.85
2022-11-24T12:36:04.400Z,6.00
2022-11-24T12:38:47.830Z,5.80
2022-11-24T12:41:42.124Z,6.78
2022-11-24T12:44:30.525Z,6.65
2022-11-24T12:47:10.974Z,5.50
2022-11-24T12:49:46.945Z,6.32
2022-11-24T12:52:22.807Z,6.13
2022-11-24T12:54:50.566Z,6.22
2022-11-24T12:57:23.498Z,5.53
2022-11-24T12:59:58.883Z,6.03
2022-11-24T13:02:34.757Z,5.82
2022-11-24T13:05:15.083Z,7.40
2022-11-24T13:07:47.398Z,6.43
2022-11-24T13:13:21.130Z,6.30
2022-11-24T13:19:10.126Z,6.57
2022-11-24T13:22:00.982Z,5.50
2022-11-24T13:24:31.648Z,4.93
2022-11-24T13:27:27.109Z,5.72
2022-11-24T13:29:55.778Z,5.68
2022-11-24T13:33:00.193Z,5.90
2022-11-24T13:35:28.219Z,4.72
2022-11-24T13:37:56.002Z,4.75
2022-11-24T13:40:49.831Z,5.20
2022-11-24T13:43:27.730Z,5.07
2022-11-24T13:45:55.579Z,5.80
2022-11-24T13:49:00.917Z,5.45
2022-11-24T13:51:28.939Z,4.97
2022-11-24T13:54:00.752Z,5.22
2022-11-24T13:56:31.413Z,4.88
2022-11-24T13:59:15.591Z,4.95
2022-11-24T14:01:44.741Z,4.90
2022-11-24T14:04:35.022Z,6.70
2022-11-24T14:07:08.161Z,6.05
2022-11-24T14:09:41.801Z,5.45
2022-11-24T14:12:15.137Z,6.50
2022-11-24T14:14:44.333Z,4.82
2022-11-24T14:17:18.824Z,4.85
2022-11-24T14:19:49.670Z,5.13
2022-11-24T14:22:19.990Z,6.13
2022-11-24T14:24:53.687Z,5.45
2022-11-24T14:27:27.065Z,4.88
2022-11-24T14:29:56.425Z,5.13
2022-11-24T14:32:24.643Z,4.65
2022-11-24T14:34:54.637Z,5.05
2022-11-24T14:37:22.860Z,5.68
2022-11-24T14:39:50.758Z,5.35
2022-11-24T14:42:21.315Z,5.43
2022-11-24T14:44:52.804Z,4.88
2022-11-24T14:47:31.228Z,5.38
2022-11-24T14:50:09.800Z,5.20
2022-11-24T14:52:44.471Z,4.38
2022-11-24T14:55:25.465Z,3.72
2022-11-24T14:57:53.395Z,4.57
2022-11-24T15:00:28.387Z,5.30
2022-11-24T15:03:09.352Z,5.07
2022-11-24T15:05:56.913Z,4.80
2022-11-24T15:08:26.317Z,4.30
2022-11-24T15:10:59.592Z,4.93
2022-11-24T15:13:27.589Z,4.88
2022-11-24T15:16:02.358Z,5.00
2022-11-24T15:18:37.573Z,4.75
2022-11-24T15:21:07.299Z,5.93
2022-11-24T15:23:36.252Z,5.15
2022-11-24T15:26:30.762Z,6.65
2022-11-24T15:28:59.190Z,4.70
2022-11-24T15:31:27.093Z,6.43
2022-11-24T15:33:54.968Z,7.20
2022-11-24T15:36:24.127Z,6.00
2022-11-24T15:38:52.234Z,6.18
2022-11-24T15:41:22.650Z,6.70
2022-11-24T15:43:50.432Z,5.97
2022-11-24T15:46:18.197Z,5.88
2022-11-24T15:48:46.157Z,5.60
2022-11-24T15:51:15.341Z,5.05
2022-11-24T15:53:47.523Z,6.13
2022-11-24T15:56:20.128Z,6.22
2022-11-24T15:58:48.445Z,6.60
2022-11-24T16:01:16.247Z,6.05
2022-11-24T16:03:47.575Z,6.03
2022-11-24T16:06:24.049Z,6.47
2022-11-24T16:08:54.790Z,7.53
2022-11-24T16:11:22.736Z,7.85
2022-11-24T16:13:53.234Z,6.43
2022-11-24T16:16:22.969Z,7.57
2022-11-24T16:18:51.008Z,6.82
2022-11-24T16:21:18.747Z,7.45
2022-11-24T16:23:47.775Z,6.32
2022-11-24T16:26:16.952Z,7.60
2022-11-24T16:28:45.767Z,7.20
2022-11-24T16:31:15.632Z,9.27
2022-11-24T16:33:44.689Z,7.25
2022-11-24T16:36:12.952Z,8.50
2022-11-24T16:38:40.688Z,7.63
2022-11-24T16:41:10.436Z,8.27
2022-11-24T16:43:39.870Z,8.30
2022-11-24T16:46:18.769Z,8.60
2022-11-24T16:48:47.407Z,5.70
2022-11-24T16:51:15.804Z,6.80
2022-11-24T16:53:44.308Z,6.40
2022-11-24T16:56:12.507Z,5.57
2022-11-24T16:58:42.464Z,6.85
2022-11-24T17:01:12.468Z,7.05
2022-11-24T17:03:40.954Z,8.40
2022-11-24T17:06:11.487Z,7.40
2022-11-24T17:08:41.383Z,7.32
2022-11-24T17:11:09.786Z,6.28
2022-11-24T17:13:38.017Z,6.20
2022-11-24T17:16:09.036Z,7.65
2022-11-24T17:18:38.483Z,8.02
2022-11-24T17:21:09.686Z,8.80
2022-11-24T17:23:38.697Z,8.65
2022-11-24T17:26:07.993Z,9.48
2022-11-24T17:28:36.026Z,8.75
2022-11-24T17:31:08.864Z,8.10
2022-11-24T17:33:37.064Z,8.82
2022-11-24T17:36:06.038Z,7.80
2022-11-24T17:38:35.109Z,7.05
2022-11-24T17:41:03.131Z,7.57
2022-11-24T17:43:30.903Z,8.55
2022-11-24T17:46:00.787Z,8.30
2022-11-24T17:48:30.770Z,6.47
2022-11-24T17:51:03.226Z,6.70
2022-11-24T17:53:31.614Z,6.35
2022-11-24T17:56:02.531Z,7.90
2022-11-24T17:58:31.449Z,7.40
2022-11-24T18:00:59.349Z,7.13
2022-11-24T18:03:28.794Z,7.75
2022-11-24T18:05:57.979Z,7.53
2022-11-24T18:08:25.808Z,8.35
2022-11-24T18:10:53.495Z,7.10
2022-11-24T18:13:41.010Z,8.35
2022-11-24T18:16:11.494Z,8.40
2022-11-24T18:18:40.441Z,8.77
2022-11-24T18:21:14.109Z,6.72
2022-11-24T18:23:43.676Z,8.85
2022-11-24T18:26:14.778Z,6.95
2022-11-24T18:28:43.449Z,7.63
2022-11-24T18:31:13.764Z,7.82
2022-11-24T18:33:43.225Z,7.18
2022-11-24T18:36:15.225Z,8.82
2022-11-24T18:38:43.668Z,7.25
2022-11-24T18:41:12.786Z,7.20
2022-11-24T18:43:40.895Z,8.38
2022-11-24T18:46:11.496Z,9.10
2022-11-24T18:48:39.370Z,7.38
2022-11-24T18:51:08.380Z,6.28
2022-11-24T18:53:37.506Z,8.07
2022-11-24T18:56:06.635Z,8.30
2022-11-24T18:58:36.358Z,6.88
2022-11-24T19:01:08.674Z,6.53
2022-11-24T19:03:42.362Z,8.55
2022-11-24T19:06:15.724Z,7.30
2022-11-24T19:08:45.338Z,6.25
2022-11-24T19:11:18.462Z,6.47
2022-11-24T19:13:47.551Z,8.80
2022-11-24T19:16:15.640Z,8.30
2022-11-24T19:18:46.488Z,8.50
2022-11-24T19:21:18.212Z,6.50
2022-11-24T19:23:47.442Z,6.13
2022-11-24T19:26:16.244Z,6.50
2022-11-24T19:28:43.939Z,5.25
2022-11-24T19:31:13.658Z,5.85
2022-11-24T19:33:41.749Z,4.95
2022-11-24T19:36:12.754Z,4.90
2022-11-24T19:38:41.888Z,4.80
2022-11-24T19:41:13.065Z,5.32
2022-11-24T19:43:41.723Z,4.30
2022-11-24T19:46:10.948Z,4.88
2022-11-24T19:48:40.173Z,4.30
2022-11-24T19:51:09.689Z,5.38
2022-11-24T19:53:37.934Z,5.63
2022-11-24T19:56:06.840Z,4.82
2022-11-24T19:58:37.486Z,4.57
2022-11-24T20:01:10.048Z,5.53
2022-11-24T20:03:39.082Z,3.88
2022-11-24T20:06:07.676Z,4.25
2022-11-24T20:08:36.897Z,5.15
2022-11-24T20:11:05.681Z,4.88
2022-11-24T20:13:37.242Z,5.38
2022-11-24T20:16:06.103Z,4.45
2022-11-24T20:18:38.912Z,5.57
2022-11-24T20:21:10.905Z,4.70
2022-11-24T20:23:39.524Z,4.65
2022-11-24T20:26:09.218Z,5.43
2022-11-24T20:28:38.671Z,5.43
2022-11-24T20:31:08.469Z,4.60
2022-11-24T20:33:37.287Z,5.00
2022-11-24T20:36:06.700Z,4.85
2022-11-24T20:38:35.429Z,4.30
2022-11-24T20:41:09.053Z,4.72
2022-11-24T20:43:39.145Z,4.95
2022-11-24T20:46:09.612Z,3.92
2022-11-24T20:48:37.912Z,4.88
2022-11-24T20:51:06.669Z,5.25
2022-11-24T20:53:35.015Z,5.07
2022-11-24T20:56:06.097Z,4.07
2022-11-24T20:58:35.089Z,4.63
2022-11-24T21:01:09.894Z,5.00
2022-11-24T21:03:43.007Z,4.57
2022-11-24T21:06:12.662Z,4.20
2022-11-24T21:08:42.273Z,4.75
2022-11-24T21:11:11.457Z,4.13
2022-11-24T21:13:40.871Z,3.53
2022-11-24T21:16:18.188Z,4.35
2022-11-24T21:18:47.249Z,4.65
2022-11-24T21:21:15.779Z,5.40
2022-11-24T21:23:44.986Z,5.18
2022-11-24T21:26:16.829Z,4.95
2022-11-24T21:28:46.422Z,4.85
2022-11-24T21:31:18.757Z,4.18
2022-11-24T21:33:48.144Z,4.45
2022-11-24T21:36:17.892Z,4.72
2022-11-24T21:38:51.142Z,3.78
2022-11-24T21:41:19.325Z,4.72
2022-11-24T21:43:47.217Z,3.42
2022-11-24T21:46:15.313Z,3.90
2022-11-24T21:48:44.926Z,3.72
2022-11-24T21:51:15.547Z,4.60
2022-11-24T21:53:44.436Z,3.65
2022-11-24T21:56:13.672Z,3.75
2022-11-24T21:58:47.095Z,4.28
2022-11-24T22:01:16.250Z,3.72
2022-11-24T22:03:46.042Z,3.90
2022-11-24T22:06:14.177Z,3.65
2022-11-24T22:08:41.862Z,3.65
2022-11-24T22:11:12.993Z,4.15
2022-11-24T22:13:41.373Z,3.72
2022-11-24T22:16:11.332Z,3.65
2022-11-24T22:18:40.825Z,3.65
2022-11-24T22:21:13.279Z,4.35
2022-11-24T22:23:41.339Z,4.28
2022-11-24T22:26:12.253Z,3.35
2022-11-24T22:28:40.376Z,3.50
2022-11-24T22:31:09.956Z,3.53
2022-11-24T22:33:37.745Z,3.42
2022-11-24T22:36:06.326Z,3.47
2022-11-24T22:38:35.518Z,3.42
2022-11-24T22:41:04.592Z,3.22
2022-11-24T22:43:33.628Z,3.38
2022-11-24T22:46:05.790Z,3.03
2022-11-24T22:48:33.727Z,2.50
2022-11-24T22:51:03.188Z,3.05
2022-11-24T22:53:31.340Z,3.38
2022-11-24T22:56:03.688Z,3.67
2022-11-24T22:58:32.016Z,3.58
2022-11-24T23:01:06.035Z,3.17
2022-11-24T23:03:34.438Z,3.80
2022-11-24T23:06:02.700Z,3.95
2022-11-24T23:08:32.846Z,3.40
2022-11-24T23:11:03.017Z,3.15
2022-11-24T23:13:30.930Z,3.40
2022-11-24T23:16:02.611Z,3.38
2022-11-24T23:18:30.776Z,3.50
2022-11-24T23:21:04.449Z,3.67
2022-11-24T23:23:32.195Z,3.30
2022-11-24T23:26:02.287Z,3.47
2022-11-24T23:28:30.038Z,3.20
2022-11-24T23:31:01.651Z,4.57
2022-11-24T23:33:29.391Z,3.55
2022-11-24T23:35:57.147Z,3.25
2022-11-24T23:38:28.548Z,2.85
2022-11-24T23:40:56.360Z,3.42
2022-11-24T23:43:25.455Z,3.40
2022-11-24T23:45:53.285Z,2.83
2022-11-24T23:48:21.167Z,2.72
2022-11-24T23:50:48.936Z,3.13
2022-11-24T23:53:16.681Z,3.67
2022-11-24T23:55:44.809Z,2.83
2022-11-24T23:58:12.834Z,2.92
